createdAt,value
2022-10-17T00:08:41.348Z,11
2022-10-17T00:18:48.885Z,9.78
2022-10-17T00:38:57.357Z,9.69
2022-10-17T00:49:04.864Z,11.61
2022-10-17T00:59:11.702Z,11.53
2022-10-17T01:09:19.131Z,11.61
2022-10-17T01:19:26.097Z,15.19
2022-10-17T01:29:33.523Z,11.65
2022-10-17T01:39:41.607Z,10.47
2022-10-17T01:49:46.611Z,10.82
2022-10-17T01:59:54.049Z,12.15
2022-10-17T02:10:02.611Z,11.18
2022-10-17T02:20:11.586Z,11.65
2022-10-17T02:30:20.758Z,13.11
2022-10-17T02:40:29.739Z,12.69
2022-10-17T02:50:38.577Z,13.03
2022-10-17T03:00:47.566Z,11.39
2022-10-17T03:10:56.411Z,13.18
2022-10-17T03:21:05.352Z,11.54
2022-10-17T03:31:14.205Z,12.12
2022-10-17T03:41:23.105Z,10.91
2022-10-17T03:51:32.000Z,10.26
2022-10-17T04:01:41.030Z,11.31
2022-10-17T04:11:49.786Z,9.29
2022-10-17T04:21:58.655Z,9.73
2022-10-17T04:32:07.545Z,9.51
2022-10-17T04:42:16.447Z,10.54
2022-10-17T04:52:25.319Z,12.25
2022-10-17T05:02:33.761Z,10.03
2022-10-17T05:12:43.099Z,16.9
2022-10-17T05:22:45.585Z,13
2022-10-17T05:32:56.376Z,12.56
2022-10-17T05:43:02.730Z,15.82
2022-10-17T05:53:00.555Z,13.78
2022-10-17T06:03:09.725Z,13.03
2022-10-17T06:13:18.669Z,17.44
2022-10-17T06:23:28.600Z,30.4
2022-10-17T06:33:27.769Z,46.47
2022-10-17T06:43:37.232Z,33.08
2022-10-17T06:53:46.465Z,24.2
2022-10-17T07:03:55.597Z,50.94
2022-10-17T07:14:04.939Z,22.32
2022-10-17T07:24:16.512Z,24.05
2022-10-17T07:34:20.160Z,33.65
2022-10-17T07:44:19.320Z,19.97
2022-10-17T07:54:28.369Z,25.04
2022-10-17T08:04:37.568Z,18.72
2022-10-17T08:14:47.884Z,90.68
2022-10-17T08:24:48.001Z,127.21
2022-10-17T08:34:47.065Z,140.57
2022-10-17T08:44:57.982Z,80
2022-10-17T08:55:06.346Z,90.45
2022-10-17T09:05:15.396Z,39.15
2022-10-17T09:15:23.893Z,54.95
2022-10-17T09:25:32.967Z,27.16
2022-10-17T09:35:44.965Z,29.22
2022-10-17T09:45:47.531Z,33.25
2022-10-17T09:55:46.677Z,23.77
2022-10-17T10:05:48.699Z,24.5
2022-10-17T10:15:48.702Z,20.25
2022-10-17T10:25:57.703Z,16.23
2022-10-17T10:36:08.775Z,17.07
2022-10-17T10:46:07.894Z,16.72
2022-10-17T10:56:17.172Z,17.44
2022-10-17T11:46:35.758Z,14.12
2022-10-17T11:56:42.837Z,16.33
2022-10-17T12:06:43.724Z,17.38
2022-10-17T12:16:47.562Z,15.1
2022-10-17T12:26:48.466Z,15.92
2022-10-17T12:36:53.948Z,18.74
2022-10-17T12:47:00.841Z,18.25
2022-10-17T12:57:17.067Z,15.36
2022-10-17T13:07:09.173Z,17.38
2022-10-17T13:17:08.111Z,16.24
2022-10-17T13:27:17.013Z,17.91
2022-10-17T13:37:26.115Z,16.93
2022-10-17T13:47:35.204Z,18.37
2022-10-17T13:57:45.621Z,17.52
2022-10-17T14:08:06.069Z,17.69
2022-10-17T14:17:52.046Z,15.08
2022-10-17T14:28:00.968Z,18.63
2022-10-17T14:38:09.914Z,18.84
2022-10-17T14:48:18.956Z,16.66
2022-10-17T14:58:29.031Z,20.64
2022-10-17T15:08:28.244Z,15.84
2022-10-17T15:18:37.368Z,19.31
2022-10-17T15:28:37.380Z,18.36
2022-10-17T15:39:42.340Z,17.81
2022-10-17T15:49:42.183Z,19.79
2022-10-17T15:59:51.104Z,16.98
2022-10-17T16:10:00.123Z,19.37
2022-10-17T16:20:09.187Z,15.91
2022-10-17T16:30:19.089Z,17.3
2022-10-17T16:40:26.410Z,17
2022-10-17T16:50:35.438Z,20.44
2022-10-17T17:00:44.418Z,20.94
2022-10-17T17:10:53.500Z,20.2
2022-10-17T17:21:03.445Z,19.7
2022-10-17T17:31:12.462Z,16.6
2022-10-17T17:41:21.295Z,19.65
2022-10-17T17:51:30.477Z,18.29
2022-10-17T18:01:39.439Z,20.88
2022-10-17T18:11:48.392Z,20.47
2022-10-17T18:21:57.555Z,19.03
2022-10-17T18:32:13.240Z,21.2
2022-10-17T18:42:26.170Z,21.51
2022-10-17T18:52:29.227Z,21.74
2022-10-17T19:02:35.684Z,21.98
2022-10-17T19:12:47.841Z,21.77
2022-10-17T19:22:43.293Z,25.28
2022-10-17T19:32:43.641Z,21.7
2022-10-17T19:42:44.440Z,20.63
2022-10-17T19:52:44.288Z,22.09
2022-10-17T20:02:53.531Z,22
2022-10-17T20:12:54.272Z,21.29
2022-10-17T20:23:04.598Z,20.44
2022-10-17T20:33:12.679Z,19.97
2022-10-17T20:43:22.898Z,20.1
2022-10-17T20:53:35.834Z,21.5
2022-10-17T21:03:30.694Z,19.89
2022-10-17T21:13:30.210Z,23.61
2022-10-17T21:23:40.766Z,23.99
2022-10-17T21:33:39.795Z,26.02
2022-10-17T21:43:48.855Z,22.1
2022-10-17T21:53:58.113Z,26.36
2022-10-17T22:04:06.920Z,21.42
2022-10-17T22:14:15.945Z,20.54
2022-10-17T22:24:26.922Z,21.23
2022-10-17T22:34:26.897Z,21.57
2022-10-17T22:44:27.184Z,19.95
2022-10-17T22:54:26.754Z,22.86
2022-10-17T23:04:35.001Z,19
2022-10-17T23:14:43.294Z,20.94
2022-10-17T23:24:51.436Z,17.34
2022-10-17T23:34:59.607Z,20.04
2022-10-17T23:45:07.658Z,21.35
2022-10-17T23:55:15.684Z,18.57
